Anamosa, Iowa
Current Conditions -  °F | °C
As of 10:35 AM on Friday 31 Oct 2014 (Local Time) from KMXO Reporting Station
Clear Clear  
Wind Chill: -3°   Ceiling: Unl
Heat Index:   Visibility: 10mi
Dew Point: -7°   Wind: 22mph
Humidity: 48%   Direction: 350°N
Pressure: 30.38"   Gusts: 29mph
Location:  42.11°N, 91.28°W
Report Text: KMXO 311535Z AUTO 35019G25KT 10SM CLR 03/M07 A3038 RMK AO2
Loading
Personal Weather Stations






























Interactive Weather Map
Tropical Storm Tracking
New forecast layout! Learn more

10-Day Weather Forecast

Advertisements
Track Severe Weather on mobile